Time;durP1;ratioP1;P1;durP2;ratioP2;P2;SDS_P1;SDS_P2;PMS_P1;PMS_P2;Temp;Humidity;BMP_temperature;BMP_pressure;BME280_temperature;BME280_humidity;BME280_pressure;Samples;Min_cycle;Max_cycle;Signal;HPM_P1;HPM_P2
2022/06/01 00:00:22;;;;;;;8.05;6.93;;;;;;;;;;5002970;28;20480;-70
2022/06/01 00:02:47;;;;;;;10.07;7.47;;;;;;;;;;4985250;28;20412;-70
2022/06/01 00:05:12;;;;;;;7.28;6.55;;;;;;;;;;5004277;28;20088;-71
2022/06/01 00:07:38;;;;;;;7.35;6.60;;;;;;;;;;5001794;28;20038;-70
2022/06/01 00:10:04;;;;;;;7.30;5.65;;;;;;;;;;4968909;28;20052;-71
2022/06/01 00:12:30;;;;;;;9.95;6.22;;;;;;;;;;4971848;28;20030;-70
2022/06/01 00:14:56;;;;;;;6.82;6.22;;;;;;;;;;4968047;28;20025;-71
2022/06/01 00:17:22;;;;;;;7.55;6.05;;;;;;;;;;4968714;28;20607;-71
2022/06/01 00:19:47;;;;;;;8.02;5.80;;;;;;;;;;5003620;28;20092;-70
2022/06/01 00:22:12;;;;;;;6.53;5.93;;;;;;;;;;4983617;28;20030;-70
2022/06/01 00:24:41;;;;;;;6.90;5.85;;;;;;;;;;4969117;28;20048;-71
2022/06/01 00:27:07;;;;;;;8.65;6.32;;;;;;;;;;5001423;28;20026;-72
2022/06/01 00:29:32;;;;;;;7.05;6.40;;;;;;;;;;4983087;28;20048;-71
2022/06/01 00:31:58;;;;;;;7.47;6.40;;;;;;;;;;4967078;28;20192;-70
2022/06/01 00:34:23;;;;;;;6.93;6.32;;;;;;;;;;5001951;28;20025;-71
2022/06/01 00:36:48;;;;;;;8.90;6.90;;;;;;;;;;5000037;28;20025;-70
2022/06/01 00:39:13;;;;;;;8.95;6.82;;;;;;;;;;4982164;28;20112;-71
2022/06/01 00:41:39;;;;;;;7.50;6.80;;;;;;;;;;4996516;28;20054;-70
2022/06/01 00:44:08;;;;;;;7.90;6.80;;;;;;;;;;4986288;28;20108;-70
2022/06/01 00:46:34;;;;;;;9.88;7.03;;;;;;;;;;4983165;28;20052;-69
2022/06/01 00:49:12;;;;;;;8.27;6.85;;;;;;;;;;4984906;28;20029;-71
2022/06/01 00:51:37;;;;;;;8.80;6.80;;;;;;;;;;5003143;28;20040;-71
2022/06/01 00:54:03;;;;;;;6.80;6.20;;;;;;;;;;4968264;28;20141;-70
2022/06/01 00:56:33;;;;;;;6.53;5.93;;;;;;;;;;4966585;28;20037;-71
2022/06/01 00:59:00;;;;;;;7.93;6.18;;;;;;;;;;4984171;28;20350;-71
2022/06/01 01:01:27;;;;;;;8.32;5.85;;;;;;;;;;5001094;28;20106;-71
2022/06/01 01:03:56;;;;;;;7.85;6.22;;;;;;;;;;5001613;28;20038;-71
2022/06/01 01:06:29;;;;;;;6.93;6.03;;;;;;;;;;4986019;28;20051;-70
2022/06/01 01:08:54;;;;;;;;;;;;;;;;;;4983064;28;20271;-70
2022/06/01 01:11:24;;;;;;;6.63;5.78;;;;;;;;;;5000192;28;19916;-71
2022/06/01 01:13:50;;;;;;;5.75;5.18;;;;;;;;;;5001202;28;20097;-71
2022/06/01 01:16:16;;;;;;;6.82;5.75;;;;;;;;;;4983743;28;20046;-71
2022/06/01 01:18:43;;;;;;;6.45;5.10;;;;;;;;;;5002405;28;20020;-71
2022/06/01 01:21:17;;;;;;;6.45;5.40;;;;;;;;;;4968668;28;20098;-71
2022/06/01 01:23:47;;;;;;;8.80;6.57;;;;;;;;;;5000952;28;20037;-70
2022/06/01 01:26:14;;;;;;;7.13;6.43;;;;;;;;;;5000409;28;20472;-70
2022/06/01 01:28:40;;;;;;;8.02;7.00;;;;;;;;;;4986147;28;20032;-71
2022/06/01 01:31:12;;;;;;;8.15;6.63;;;;;;;;;;4982408;28;20033;-71
2022/06/01 01:33:38;;;;;;;12.05;7.47;;;;;;;;;;4987454;28;20025;-70
2022/06/01 01:36:08;;;;;;;10.55;6.78;;;;;;;;;;4986288;28;20021;-71
2022/06/01 01:38:33;;;;;;;9.98;6.20;;;;;;;;;;5003772;28;20421;-72
2022/06/01 01:41:09;;;;;;;8.32;5.65;;;;;;;;;;4983872;28;20127;-71
2022/06/01 01:44:01;;;;;;;5.90;4.38;;;;;;;;;;5005219;28;20036;-71
2022/06/01 01:46:27;;;;;;;5.82;4.25;;;;;;;;;;4971855;28;20171;-73
2022/06/01 01:48:52;;;;;;;4.88;3.40;;;;;;;;;;5002218;28;20056;-71
2022/06/01 01:51:21;;;;;;;5.20;3.30;;;;;;;;;;5002781;28;20441;-71
2022/06/01 01:53:47;;;;;;;2.80;2.58;;;;;;;;;;4999082;28;20017;-71
2022/06/01 01:56:25;;;;;;;3.50;2.60;;;;;;;;;;5001181;28;20022;-70
2022/06/01 01:59:23;;;;;;;3.67;2.60;;;;;;;;;;5003493;28;20108;-72
2022/06/01 02:01:55;;;;;;;2.88;2.63;;;;;;;;;;4950675;28;20045;-72
2022/06/01 02:07:22;;;;;;;4.15;2.35;;;;;;;;;;4999563;28;20139;-71
2022/06/01 02:12:43;;;;;;;5.32;2.40;;;;;;;;;;4987070;28;20028;-71
2022/06/01 02:15:11;;;;;;;4.45;3.15;;;;;;;;;;4982814;28;20018;-72
2022/06/01 02:17:39;;;;;;;4.25;3.40;;;;;;;;;;5002156;28;20072;-71
2022/06/01 02:20:12;;;;;;;4.25;3.30;;;;;;;;;;5002457;28;20033;-71
2022/06/01 02:22:38;;;;;;;5.18;4.20;;;;;;;;;;5001474;28;20179;-72
2022/06/01 02:25:04;;;;;;;4.22;3.80;;;;;;;;;;4981644;28;20450;-72
2022/06/01 02:27:30;;;;;;;7.20;4.20;;;;;;;;;;4968277;28;20041;-72
2022/06/01 02:30:07;;;;;;;5.90;4.40;;;;;;;;;;4999383;28;20054;-72
2022/06/01 02:32:33;;;;;;;4.97;4.53;;;;;;;;;;4984781;28;20108;-72
2022/06/01 02:34:59;;;;;;;4.40;4.00;;;;;;;;;;4998847;28;20696;-71
2022/06/01 02:37:25;;;;;;;6.15;4.57;;;;;;;;;;4983265;28;20463;-72
2022/06/01 02:39:53;;;;;;;4.68;4.28;;;;;;;;;;5000855;28;20081;-72
2022/06/01 02:42:30;;;;;;;5.35;4.80;;;;;;;;;;5000521;28;20124;-71
2022/06/01 02:44:59;;;;;;;6.30;5.00;;;;;;;;;;4998157;28;20473;-72
2022/06/01 02:47:26;;;;;;;6.78;4.90;;;;;;;;;;4983903;28;20046;-72
2022/06/01 02:49:51;;;;;;;5.10;4.60;;;;;;;;;;5000248;28;20053;-72
2022/06/01 02:52:16;;;;;;;4.90;4.30;;;;;;;;;;4982383;28;20025;-72
2022/06/01 02:54:41;;;;;;;5.45;4.45;;;;;;;;;;5002261;28;20104;-72
2022/06/01 02:57:07;;;;;;;5.10;4.00;;;;;;;;;;4998476;28;20345;-71
2022/06/01 02:59:32;;;;;;;6.45;4.70;;;;;;;;;;4971029;28;20538;-71
2022/06/01 03:01:58;;;;;;;5.18;3.80;;;;;;;;;;4998335;28;20022;-70
2022/06/01 03:04:23;;;;;;;4.80;3.75;;;;;;;;;;4986154;28;20475;-70
2022/06/01 03:06:49;;;;;;;3.92;3.47;;;;;;;;;;5001616;28;20044;-70
2022/06/01 03:09:14;;;;;;;4.68;3.70;;;;;;;;;;4982355;28;20200;-70
2022/06/01 03:11:39;;;;;;;4.13;3.72;;;;;;;;;;4980863;28;20132;-70
2022/06/01 03:14:04;;;;;;;3.60;3.28;;;;;;;;;;4980919;28;20018;-71
2022/06/01 03:16:30;;;;;;;4.68;3.22;;;;;;;;;;4964800;28;20044;-70
2022/06/01 03:18:55;;;;;;;4.63;3.50;;;;;;;;;;4999246;28;20110;-71
2022/06/01 03:21:20;;;;;;;4.68;3.70;;;;;;;;;;4980322;28;20026;-71
2022/06/01 03:23:45;;;;;;;3.50;3.20;;;;;;;;;;4983551;28;20084;-71
2022/06/01 03:26:12;;;;;;;3.97;3.40;;;;;;;;;;4964078;28;20278;-70
2022/06/01 03:28:38;;;;;;;3.97;3.38;;;;;;;;;;5001712;28;20018;-70
2022/06/01 03:31:03;;;;;;;5.40;3.28;;;;;;;;;;4997101;28;20020;-70
2022/06/01 03:33:28;;;;;;;3.88;3.47;;;;;;;;;;5001133;28;20026;-69
2022/06/01 03:35:53;;;;;;;5.28;3.05;;;;;;;;;;4980441;28;20021;-71
2022/06/01 03:38:18;;;;;;;3.53;3.22;;;;;;;;;;4982416;28;20014;-71
2022/06/01 03:40:44;;;;;;;4.13;3.72;;;;;;;;;;4998227;28;20350;-71
2022/06/01 03:43:10;;;;;;;3.92;3.58;;;;;;;;;;5000811;28;20099;-70
2022/06/01 03:48:20;;;;;;;5.03;3.92;;;;;;;;;;5003293;28;20057;-71
2022/06/01 03:50:46;;;;;;;5.28;4.00;;;;;;;;;;5002241;28;20034;-71
2022/06/01 03:53:11;;;;;;;5.60;4.15;;;;;;;;;;4981729;28;20026;-71
2022/06/01 03:55:36;;;;;;;4.80;3.90;;;;;;;;;;5001425;28;20085;-71
2022/06/01 03:58:02;;;;;;;4.93;4.13;;;;;;;;;;4986819;28;20381;-70
2022/06/01 04:00:28;;;;;;;5.88;4.53;;;;;;;;;;5005169;28;20037;-71
2022/06/01 04:02:54;;;;;;;5.88;4.40;;;;;;;;;;4971461;28;20057;-70
2022/06/01 04:05:20;;;;;;;5.35;4.43;;;;;;;;;;4988020;28;20127;-71
2022/06/01 04:07:45;;;;;;;5.65;4.95;;;;;;;;;;4986732;28;20380;-71
2022/06/01 04:10:11;;;;;;;5.85;4.90;;;;;;;;;;4967840;28;20121;-71
2022/06/01 04:12:36;;;;;;;6.68;5.28;;;;;;;;;;5004658;28;20022;-69
2022/06/01 04:15:03;;;;;;;6.13;5.10;;;;;;;;;;4968240;28;20029;-70
2022/06/01 04:17:28;;;;;;;8.63;5.10;;;;;;;;;;4984207;28;20164;-70
2022/06/01 04:19:54;;;;;;;5.88;5.28;;;;;;;;;;5006242;28;20093;-70
2022/06/01 04:22:20;;;;;;;7.78;5.55;;;;;;;;;;4985065;28;20362;-69
2022/06/01 04:24:45;;;;;;;6.28;5.32;;;;;;;;;;4987647;28;20033;-71
2022/06/01 04:27:11;;;;;;;7.55;5.75;;;;;;;;;;5002859;28;20021;-71
2022/06/01 04:29:36;;;;;;;5.55;5.05;;;;;;;;;;4972541;28;20484;-70
2022/06/01 04:32:03;;;;;;;6.25;5.32;;;;;;;;;;4999631;28;20030;-70
2022/06/01 04:34:28;;;;;;;6.22;5.63;;;;;;;;;;4987423;28;20049;-70
2022/06/01 04:36:54;;;;;;;6.45;5.78;;;;;;;;;;5003469;28;20057;-69
2022/06/01 04:39:23;;;;;;;8.18;5.97;;;;;;;;;;4985371;28;20021;-70
2022/06/01 04:41:48;;;;;;;6.20;5.60;;;;;;;;;;5003661;28;20460;-71
2022/06/01 04:44:13;;;;;;;6.95;5.75;;;;;;;;;;4983600;28;20072;-72
2022/06/01 04:46:39;;;;;;;6.82;5.53;;;;;;;;;;5001494;28;20132;-70
2022/06/01 04:49:04;;;;;;;7.75;6.03;;;;;;;;;;5003613;28;20052;-71
2022/06/01 04:51:30;;;;;;;7.15;5.97;;;;;;;;;;5005310;28;20026;-69
2022/06/01 04:53:55;;;;;;;7.15;6.20;;;;;;;;;;4988697;28;20022;-70
2022/06/01 04:56:20;;;;;;;6.97;6.13;;;;;;;;;;5000660;28;20227;-70
2022/06/01 04:58:45;;;;;;;9.50;6.90;;;;;;;;;;5005513;28;20505;-69
2022/06/01 05:01:11;;;;;;;7.53;6.53;;;;;;;;;;5000838;28;20029;-70
2022/06/01 05:03:36;;;;;;;7.88;6.75;;;;;;;;;;5004819;28;20333;-70
2022/06/01 05:06:02;;;;;;;7.35;6.40;;;;;;;;;;5003805;28;20104;-69
2022/06/01 05:08:27;;;;;;;8.68;6.18;;;;;;;;;;4969075;28;20346;-69
2022/06/01 05:10:53;;;;;;;7.07;6.38;;;;;;;;;;4986236;28;20022;-70
2022/06/01 05:13:18;;;;;;;8.15;6.53;;;;;;;;;;4984017;28;20080;-70
2022/06/01 05:15:49;;;;;;;7.88;6.32;;;;;;;;;;5004265;28;20022;-69
2022/06/01 05:18:14;;;;;;;7.70;5.88;;;;;;;;;;4999860;28;20025;-70
2022/06/01 05:20:40;;;;;;;8.70;6.43;;;;;;;;;;5005827;28;20480;-69
2022/06/01 05:23:05;;;;;;;8.35;6.93;;;;;;;;;;5001167;28;20397;-70
2022/06/01 05:25:30;;;;;;;7.97;6.97;;;;;;;;;;4967929;28;20033;-70
2022/06/01 05:27:55;;;;;;;9.43;6.55;;;;;;;;;;4986446;28;20033;-70
2022/06/01 05:30:21;;;;;;;10.40;6.20;;;;;;;;;;4983129;28;20698;-70
2022/06/01 05:32:46;;;;;;;8.77;5.88;;;;;;;;;;4986505;28;20558;-69
2022/06/01 05:35:11;;;;;;;9.35;5.53;;;;;;;;;;4982081;28;20587;-70
2022/06/01 05:37:37;;;;;;;8.20;5.35;;;;;;;;;;5002686;28;20077;-71
2022/06/01 05:40:04;;;;;;;7.60;5.28;;;;;;;;;;4984329;28;20033;-71
2022/06/01 05:42:30;;;;;;;8.68;5.30;;;;;;;;;;4983828;28;20022;-70
2022/06/01 05:44:56;;;;;;;5.03;4.22;;;;;;;;;;4968325;28;20026;-70
2022/06/01 05:47:21;;;;;;;5.88;3.92;;;;;;;;;;4979164;28;20108;-70
2022/06/01 05:49:47;;;;;;;5.20;4.03;;;;;;;;;;4983524;28;20388;-69
2022/06/01 05:52:13;;;;;;;5.47;3.47;;;;;;;;;;4968145;28;20429;-69
2022/06/01 05:54:38;;;;;;;4.65;3.50;;;;;;;;;;4963682;28;20481;-70
2022/06/01 05:57:03;;;;;;;6.45;3.53;;;;;;;;;;4960466;28;20046;-71
2022/06/01 05:59:29;;;;;;;4.85;3.33;;;;;;;;;;4945314;28;20039;-70
2022/06/01 06:01:54;;;;;;;5.47;2.63;;;;;;;;;;4961481;28;20057;-70
2022/06/01 06:04:20;;;;;;;6.80;2.38;;;;;;;;;;4959687;28;20110;-71
2022/06/01 06:06:46;;;;;;;3.33;2.28;;;;;;;;;;4946634;28;20117;-71
2022/06/01 06:09:11;;;;;;;4.25;3.28;;;;;;;;;;4957057;28;20031;-70
2022/06/01 06:11:38;;;;;;;3.85;2.42;;;;;;;;;;4945539;28;20035;-70
2022/06/01 06:14:03;;;;;;;3.28;2.70;;;;;;;;;;4983984;28;20022;-70
2022/06/01 06:16:30;;;;;;;4.85;2.50;;;;;;;;;;4978255;28;20033;-69
2022/06/01 06:18:58;;;;;;;4.53;2.30;;;;;;;;;;4982455;28;20026;-70
2022/06/01 06:21:29;;;;;;;4.35;1.77;;;;;;;;;;4980354;28;20109;-70
2022/06/01 06:23:58;;;;;;;3.38;2.33;;;;;;;;;;4980700;28;20421;-70
2022/06/01 06:26:23;;;;;;;4.28;2.30;;;;;;;;;;4980126;28;20052;-70
2022/06/01 06:28:48;;;;;;;4.75;2.20;;;;;;;;;;4984147;28;20049;-70
2022/06/01 06:31:13;;;;;;;2.00;1.48;;;;;;;;;;4982036;28;20097;-71
2022/06/01 06:33:40;;;;;;;1.40;1.30;;;;;;;;;;4958943;28;20125;-68
2022/06/01 06:36:06;;;;;;;2.25;1.20;;;;;;;;;;4982006;28;20022;-69
2022/06/01 06:38:32;;;;;;;3.65;1.30;;;;;;;;;;4976529;28;20420;-71
2022/06/01 06:40:59;;;;;;;2.63;1.50;;;;;;;;;;4978497;28;20256;-69
2022/06/01 06:43:24;;;;;;;2.33;1.30;;;;;;;;;;4978172;28;20473;-71
2022/06/01 06:45:50;;;;;;;1.77;1.17;;;;;;;;;;4980589;28;20038;-69
2022/06/01 06:48:17;;;;;;;1.55;1.27;;;;;;;;;;4994077;28;20496;-69
2022/06/01 06:50:42;;;;;;;1.92;1.30;;;;;;;;;;4980857;28;20432;-69
2022/06/01 06:53:07;;;;;;;2.90;1.15;;;;;;;;;;4980441;28;20460;-71
2022/06/01 06:55:32;;;;;;;1.75;1.15;;;;;;;;;;4977096;28;20206;-70
2022/06/01 06:57:58;;;;;;;1.73;1.23;;;;;;;;;;4966595;28;20148;-70
2022/06/01 07:00:23;;;;;;;1.20;1.10;;;;;;;;;;4996359;28;20026;-71
2022/06/01 07:02:48;;;;;;;3.72;1.90;;;;;;;;;;5000358;28;20149;-70
2022/06/01 07:06:08;;;;;;;1.60;1.45;;;;;;;;;;5000438;28;20570;-71
2022/06/01 07:08:01;;;;;;;2.38;1.45;;;;;;;;;;4997449;28;20025;-71
2022/06/01 07:10:26;;;;;;;4.18;1.73;;;;;;;;;;4996911;28;20117;-70
2022/06/01 07:12:51;;;;;;;2.50;2.15;;;;;;;;;;4997895;28;20164;-71
2022/06/01 07:15:17;;;;;;;1.85;1.58;;;;;;;;;;4978898;28;20037;-70
2022/06/01 07:17:42;;;;;;;2.05;1.85;;;;;;;;;;4981738;28;20026;-70
2022/06/01 07:20:07;;;;;;;3.70;1.83;;;;;;;;;;4981421;28;20018;-71
2022/06/01 07:22:33;;;;;;;5.88;2.00;;;;;;;;;;4996677;28;20745;-71
2022/06/01 07:24:59;;;;;;;4.18;1.92;;;;;;;;;;4981715;28;20137;-71
2022/06/01 07:27:24;;;;;;;4.03;2.20;;;;;;;;;;4963469;28;20034;-70
2022/06/01 07:29:49;;;;;;;6.68;1.85;;;;;;;;;;4967835;28;20392;-70
2022/06/01 07:32:15;;;;;;;3.58;1.80;;;;;;;;;;5002718;28;20460;-70
2022/06/01 07:34:40;;;;;;;2.15;1.77;;;;;;;;;;4986852;28;20022;-71
2022/06/01 07:45:19;;;;;;;2.55;1.83;;;;;;;;;;5003975;28;20037;-70
2022/06/01 07:47:44;;;;;;;3.22;1.75;;;;;;;;;;4969784;28;20042;-70
2022/06/01 07:50:10;;;;;;;2.67;2.17;;;;;;;;;;5004067;28;20057;-70
2022/06/01 07:52:35;;;;;;;3.35;2.10;;;;;;;;;;4982474;28;20030;-69
2022/06/01 07:55:01;;;;;;;3.42;2.13;;;;;;;;;;4985164;28;20050;-70
2022/06/01 07:57:27;;;;;;;2.63;2.20;;;;;;;;;;4983567;28;20105;-69
2022/06/01 07:59:52;;;;;;;3.40;2.50;;;;;;;;;;4988084;28;20432;-70
2022/06/01 08:02:18;;;;;;;3.15;2.25;;;;;;;;;;5001101;28;20562;-69
2022/06/01 08:04:43;;;;;;;4.07;2.30;;;;;;;;;;4970449;28;20041;-70
2022/06/01 08:07:09;;;;;;;3.70;2.20;;;;;;;;;;5002265;28;20025;-69
2022/06/01 08:09:35;;;;;;;3.22;2.45;;;;;;;;;;5002622;28;20451;-69
2022/06/01 08:14:44;;;;;;;3.13;2.50;;;;;;;;;;4988505;28;20274;-70
2022/06/01 08:17:10;;;;;;;6.85;2.35;;;;;;;;;;4984030;28;20018;-69
2022/06/01 08:19:36;;;;;;;2.95;2.38;;;;;;;;;;4968597;28;20029;-70
2022/06/01 08:22:01;;;;;;;3.58;2.40;;;;;;;;;;4984528;28;20026;-68
2022/06/01 08:24:27;;;;;;;2.88;2.63;;;;;;;;;;4968983;28;20368;-70
2022/06/01 08:26:53;;;;;;;3.92;2.80;;;;;;;;;;5002845;28;20099;-71
2022/06/01 08:29:18;;;;;;;3.63;2.70;;;;;;;;;;5005176;28;20109;-70
2022/06/01 08:31:44;;;;;;;4.20;2.47;;;;;;;;;;4968002;28;20291;-70
2022/06/01 08:34:10;;;;;;;3.70;2.50;;;;;;;;;;4984320;28;20388;-69
2022/06/01 08:36:35;;;;;;;4.35;2.60;;;;;;;;;;4984973;28;20026;-69
2022/06/01 08:39:01;;;;;;;3.13;2.50;;;;;;;;;;5002626;28;20029;-69
2022/06/01 08:41:29;;;;;;;3.40;2.70;;;;;;;;;;5001889;28;20033;-68
2022/06/01 08:43:57;;;;;;;6.70;2.80;;;;;;;;;;5004956;28;20464;-69
2022/06/01 08:46:23;;;;;;;4.25;2.92;;;;;;;;;;5003391;28;20483;-70
2022/06/01 08:48:52;;;;;;;2.88;2.65;;;;;;;;;;4986312;28;20021;-70
2022/06/01 08:51:19;;;;;;;5.10;3.50;;;;;;;;;;4986941;28;20045;-70
2022/06/01 08:53:44;;;;;;;6.90;3.75;;;;;;;;;;4981253;28;20203;-69
2022/06/01 08:56:13;;;;;;;3.33;2.42;;;;;;;;;;5001761;28;20026;-69
2022/06/01 08:58:38;;;;;;;3.28;2.70;;;;;;;;;;5001142;28;20033;-69
2022/06/01 09:01:12;;;;;;;4.83;3.00;;;;;;;;;;5003030;28;20017;-70
2022/06/01 09:03:46;;;;;;;3.80;2.75;;;;;;;;;;4983619;28;20267;-70
2022/06/01 09:06:14;;;;;;;5.50;2.33;;;;;;;;;;5004394;28;20014;-71
2022/06/01 09:08:44;;;;;;;3.25;2.15;;;;;;;;;;4999743;28;20033;-69
2022/06/01 09:11:18;;;;;;;2.58;2.10;;;;;;;;;;5001101;28;20018;-70
2022/06/01 09:14:02;;;;;;;3.85;2.08;;;;;;;;;;4999641;28;20062;-69
2022/06/01 09:16:30;;;;;;;2.53;1.95;;;;;;;;;;5002067;28;20032;-69
2022/06/01 09:18:56;;;;;;;4.60;2.40;;;;;;;;;;5001495;28;20314;-71
2022/06/01 09:24:14;;;;;;;4.15;2.65;;;;;;;;;;5001664;28;20033;-70
2022/06/01 09:26:52;;;;;;;5.07;3.30;;;;;;;;;;4980589;28;20053;-70
2022/06/01 09:29:22;;;;;;;3.83;2.85;;;;;;;;;;4986368;28;20022;-70
2022/06/01 09:31:48;;;;;;;3.95;3.50;;;;;;;;;;5001392;28;20566;-70
2022/06/01 09:34:14;;;;;;;4.00;3.00;;;;;;;;;;4982926;28;20029;-68
2022/06/01 09:36:47;;;;;;;5.50;3.05;;;;;;;;;;5001092;28;20365;-68
2022/06/01 09:39:17;;;;;;;5.13;3.20;;;;;;;;;;4983442;28;20476;-69
2022/06/01 09:41:42;;;;;;;3.20;2.53;;;;;;;;;;4981232;28;20129;-69
2022/06/01 09:44:14;;;;;;;4.20;3.00;;;;;;;;;;5002545;28;20026;-68
2022/06/01 09:46:40;;;;;;;3.65;3.00;;;;;;;;;;4999377;28;20038;-69
2022/06/01 09:49:08;;;;;;;3.70;3.23;;;;;;;;;;4983367;28;20404;-69
2022/06/01 09:51:34;;;;;;;4.22;3.65;;;;;;;;;;5001081;28;20342;-67
2022/06/01 09:54:09;;;;;;;4.95;3.70;;;;;;;;;;4998843;28;20022;-69
2022/06/01 09:56:40;;;;;;;6.10;3.63;;;;;;;;;;4998230;28;20028;-69
2022/06/01 10:07:25;;;;;;;4.47;3.33;;;;;;;;;;5000657;28;20453;-68
2022/06/01 10:09:50;;;;;;;;;;;;;;;;;;4998962;28;20267;-68
2022/06/01 10:12:23;;;;;;;2.78;2.28;;;;;;;;;;5000466;28;20016;-69
2022/06/01 10:14:51;;;;;;;2.10;1.98;;;;;;;;;;4998347;28;20127;-70
2022/06/01 10:17:23;;;;;;;3.15;2.35;;;;;;;;;;4985432;28;20026;-70
2022/06/01 10:20:01;;;;;;;3.00;2.58;;;;;;;;;;4980741;28;20119;-69
2022/06/01 10:22:38;;;;;;;4.72;2.75;;;;;;;;;;4999436;28;20086;-68
2022/06/01 10:25:08;;;;;;;4.63;2.60;;;;;;;;;;5000799;28;20025;-69
2022/06/01 10:27:52;;;;;;;3.20;2.45;;;;;;;;;;5001078;28;20071;-70
2022/06/01 10:30:22;;;;;;;3.70;2.35;;;;;;;;;;5001559;28;20052;-69
2022/06/01 10:33:11;;;;;;;4.15;2.50;;;;;;;;;;4999943;28;20076;-69
2022/06/01 10:35:47;;;;;;;3.22;2.75;;;;;;;;;;4987072;28;20093;-69
2022/06/01 10:38:17;;;;;;;3.05;2.47;;;;;;;;;;4999227;28;20565;-69
2022/06/01 10:40:54;;;;;;;3.35;2.85;;;;;;;;;;4997673;28;20034;-67
2022/06/01 10:43:38;;;;;;;5.30;2.78;;;;;;;;;;5002558;28;20551;-69
2022/06/01 10:46:08;;;;;;;3.85;3.40;;;;;;;;;;5001650;28;20030;-69
2022/06/01 10:48:38;;;;;;;4.53;3.78;;;;;;;;;;4956940;28;20053;-69
2022/06/01 10:51:03;;;;;;;5.38;4.25;;;;;;;;;;4960897;28;20823;-70
2022/06/01 10:53:37;;;;;;;5.45;4.13;;;;;;;;;;4959725;28;20311;-67
2022/06/01 10:56:02;;;;;;;5.60;4.55;;;;;;;;;;4958480;28;20030;-69
2022/06/01 10:58:29;;;;;;;6.95;5.15;;;;;;;;;;4963455;28;20802;-68
2022/06/01 11:00:56;;;;;;;6.50;5.32;;;;;;;;;;4961478;28;20548;-68
2022/06/01 11:03:30;;;;;;;7.50;5.75;;;;;;;;;;4960678;28;20018;-69
2022/06/01 11:06:02;;;;;;;6.07;5.25;;;;;;;;;;4962292;28;20540;-69
2022/06/01 11:08:30;;;;;;;7.03;6.15;;;;;;;;;;4963384;28;20181;-69
2022/06/01 11:11:01;;;;;;;8.07;5.57;;;;;;;;;;4961694;28;20408;-69
2022/06/01 11:13:29;;;;;;;6.82;5.28;;;;;;;;;;4965889;28;20023;-69
2022/06/01 11:16:15;;;;;;;7.85;5.28;;;;;;;;;;4963387;28;20060;-69
2022/06/01 11:18:50;;;;;;;6.28;5.50;;;;;;;;;;4980398;28;20023;-68
2022/06/01 11:21:18;;;;;;;6.35;5.10;;;;;;;;;;4967416;28;20018;-69
2022/06/01 11:24:12;;;;;;;4.75;4.10;;;;;;;;;;4962182;28;20050;-69
2022/06/01 11:26:43;;;;;;;6.28;5.68;;;;;;;;;;4954453;28;20039;-69
2022/06/01 11:29:11;;;;;;;6.65;5.90;;;;;;;;;;4963120;28;20382;-69
2022/06/01 11:31:38;;;;;;;8.45;5.53;;;;;;;;;;4964760;28;20037;-67
2022/06/01 11:34:15;;;;;;;7.28;6.57;;;;;;;;;;4977628;28;20030;-69
2022/06/01 11:36:53;;;;;;;8.55;6.70;;;;;;;;;;4965491;28;20019;-68
2022/06/01 11:39:33;;;;;;;7.25;6.55;;;;;;;;;;4963995;28;20018;-70
2022/06/01 11:42:14;;;;;;;9.20;6.68;;;;;;;;;;4963010;28;20589;-68
2022/06/01 11:44:42;;;;;;;7.63;6.10;;;;;;;;;;4967894;28;20022;-71
2022/06/01 11:47:17;;;;;;;7.35;6.22;;;;;;;;;;4972987;28;20069;-71
2022/06/01 11:49:44;;;;;;;8.20;6.07;;;;;;;;;;4982798;28;20481;-68
2022/06/01 11:52:24;;;;;;;8.32;5.80;;;;;;;;;;4982090;28;20037;-69
2022/06/01 11:55:10;;;;;;;7.35;5.70;;;;;;;;;;4983653;28;20030;-69
2022/06/01 11:57:44;;;;;;;5.68;5.13;;;;;;;;;;4984639;28;20018;-72
2022/06/01 12:00:31;;;;;;;6.55;5.88;;;;;;;;;;4962921;28;20528;-69
2022/06/01 12:03:00;;;;;;;7.40;6.63;;;;;;;;;;4983119;28;20034;-70
2022/06/01 12:05:28;;;;;;;9.63;6.80;;;;;;;;;;4981606;28;20018;-72
2022/06/01 12:07:55;;;;;;;6.82;6.15;;;;;;;;;;4979677;28;20173;-68
2022/06/01 12:10:20;;;;;;;8.10;6.38;;;;;;;;;;4982322;28;20450;-68
2022/06/01 12:12:55;;;;;;;6.72;6.03;;;;;;;;;;4985172;28;20247;-70
2022/06/01 12:15:29;;;;;;;7.88;7.07;;;;;;;;;;4985344;28;20098;-69
2022/06/01 12:18:04;;;;;;;7.57;6.88;;;;;;;;;;4971691;28;20022;-68
2022/06/01 12:20:32;;;;;;;8.73;7.80;;;;;;;;;;4964799;28;20343;-70
2022/06/01 12:28:48;;;;;;;8.65;6.80;;;;;;;;;;4966058;28;20038;-69
2022/06/01 12:31:42;;;;;;;8.75;6.10;;;;;;;;;;4964633;28;20166;-69
2022/06/01 12:34:19;;;;;;;6.90;6.20;;;;;;;;;;4936529;28;20443;-70
2022/06/01 12:37:10;;;;;;;6.78;6.05;;;;;;;;;;4962925;28;20025;-68
2022/06/01 12:39:39;;;;;;;7.88;6.53;;;;;;;;;;4969549;28;20516;-69
2022/06/01 12:42:04;;;;;;;8.43;7.18;;;;;;;;;;4978375;28;20034;-69
2022/06/01 12:44:32;;;;;;;8.05;6.43;;;;;;;;;;4984028;28;20109;-69
2022/06/01 12:46:58;;;;;;;8.73;7.15;;;;;;;;;;4988174;28;20129;-68
2022/06/01 12:49:29;;;;;;;8.35;6.45;;;;;;;;;;5002777;28;20017;-70
2022/06/01 12:51:56;;;;;;;7.57;6.32;;;;;;;;;;5000378;28;20108;-69
2022/06/01 12:54:33;;;;;;;7.60;5.82;;;;;;;;;;4984791;28;20018;-69
2022/06/01 12:56:58;;;;;;;6.63;5.93;;;;;;;;;;4998640;28;20429;-68
2022/06/01 12:59:27;;;;;;;6.88;5.88;;;;;;;;;;5004893;28;20051;-69
2022/06/01 13:01:58;;;;;;;6.50;6.00;;;;;;;;;;5002760;28;20024;-69
2022/06/01 13:04:24;;;;;;;14.07;6.38;;;;;;;;;;5000515;28;20421;-70
2022/06/01 13:06:49;;;;;;;8.95;5.35;;;;;;;;;;5001498;28;20026;-69
2022/06/01 13:09:19;;;;;;;8.27;5.07;;;;;;;;;;4983738;28;20109;-71
2022/06/01 13:11:55;;;;;;;7.05;4.90;;;;;;;;;;5001169;28;20032;-70
2022/06/01 13:14:22;;;;;;;11.32;4.72;;;;;;;;;;4984346;28;20228;-70
2022/06/01 13:16:48;;;;;;;6.07;4.07;;;;;;;;;;4985560;28;20456;-69
2022/06/01 13:19:18;;;;;;;5.55;3.70;;;;;;;;;;4982463;28;20028;-69
2022/06/01 13:21:45;;;;;;;7.38;4.20;;;;;;;;;;5004269;28;20014;-68
2022/06/01 13:24:11;;;;;;;6.57;3.72;;;;;;;;;;4981539;28;20026;-69
2022/06/01 13:26:40;;;;;;;5.70;3.67;;;;;;;;;;4981590;28;20076;-69
2022/06/01 13:29:11;;;;;;;78.55;9.38;;;;;;;;;;4983585;28;20198;-69
2022/06/01 13:31:37;;;;;;;23.77;4.72;;;;;;;;;;5003190;28;20029;-68
2022/06/01 13:34:05;;;;;;;36.00;5.38;;;;;;;;;;4997742;28;20339;-69
2022/06/01 13:36:31;;;;;;;7.15;2.95;;;;;;;;;;4981135;28;20366;-70
2022/06/01 13:39:01;;;;;;;4.78;3.45;;;;;;;;;;4996441;28;20014;-68
2022/06/01 13:41:43;;;;;;;7.72;3.42;;;;;;;;;;4982465;28;20487;-71
2022/06/01 13:44:13;;;;;;;6.27;3.53;;;;;;;;;;4999793;28;20345;-70
2022/06/01 13:46:40;;;;;;;4.25;3.50;;;;;;;;;;4981527;28;20722;-69
2022/06/01 13:49:09;;;;;;;13.65;4.18;;;;;;;;;;5001180;28;20092;-69
2022/06/01 13:51:38;;;;;;;26.10;5.45;;;;;;;;;;5000650;28;20060;-70
2022/06/01 13:54:18;;;;;;;4.80;3.90;;;;;;;;;;4994936;28;20048;-69
2022/06/01 13:56:43;;;;;;;6.45;4.00;;;;;;;;;;4981844;28;20022;-69
2022/06/01 13:59:13;;;;;;;4.97;3.55;;;;;;;;;;5001656;28;20022;-68
2022/06/01 14:01:44;;;;;;;7.97;3.90;;;;;;;;;;5000210;28;20026;-69
2022/06/01 14:04:27;;;;;;;6.97;3.60;;;;;;;;;;4999591;28;20259;-69
2022/06/01 14:07:05;;;;;;;6.38;4.30;;;;;;;;;;4982522;28;20021;-70
2022/06/01 14:09:32;;;;;;;5.03;4.40;;;;;;;;;;4985132;28;20409;-69
2022/06/01 14:11:58;;;;;;;4.72;3.47;;;;;;;;;;4976310;28;20029;-70
2022/06/01 14:14:43;;;;;;;4.38;3.97;;;;;;;;;;5001866;28;20036;-69
2022/06/01 14:17:11;;;;;;;6.25;4.18;;;;;;;;;;4999006;28;20092;-69
2022/06/01 14:19:36;;;;;;;4.40;3.95;;;;;;;;;;4998825;28;20495;-70
2022/06/01 14:22:03;;;;;;;6.32;3.70;;;;;;;;;;4997492;28;20034;-70
2022/06/01 14:28:28;;;;;;;3.85;2.95;;;;;;;;;;4985131;28;20033;-69
2022/06/01 14:29:57;;;;;;;7.13;2.58;;;;;;;;;;4981545;28;20103;-68
2022/06/01 14:32:23;;;;;;;3.43;2.03;;;;;;;;;;4983099;28;20026;-69
2022/06/01 14:34:48;;;;;;;2.70;2.10;;;;;;;;;;4979466;28;20259;-70
2022/06/01 14:37:13;;;;;;;4.40;2.20;;;;;;;;;;4996312;28;20214;-70
2022/06/01 14:39:39;;;;;;;4.68;2.30;;;;;;;;;;5001946;28;20038;-69
2022/06/01 14:42:06;;;;;;;3.83;2.08;;;;;;;;;;4962676;28;20132;-68
2022/06/01 14:44:31;;;;;;;3.35;2.05;;;;;;;;;;5003551;28;20097;-69
2022/06/01 14:46:57;;;;;;;2.67;2.47;;;;;;;;;;4960772;28;20405;-69
2022/06/01 14:49:23;;;;;;;3.90;2.38;;;;;;;;;;4978564;28;20671;-70
2022/06/01 14:52:01;;;;;;;3.00;2.40;;;;;;;;;;4979010;28;20031;-69
2022/06/01 14:54:27;;;;;;;4.63;2.30;;;;;;;;;;4960861;28;20019;-67
2022/06/01 14:56:53;;;;;;;4.78;2.70;;;;;;;;;;4959112;28;20366;-68
2022/06/01 14:59:18;;;;;;;3.55;2.28;;;;;;;;;;4959492;28;20025;-68
2022/06/01 15:01:46;;;;;;;3.60;2.85;;;;;;;;;;4962201;28;20062;-68
2022/06/01 15:04:13;;;;;;;3.47;2.80;;;;;;;;;;4961434;28;20023;-68
2022/06/01 15:06:39;;;;;;;3.60;2.70;;;;;;;;;;4959651;28;20441;-68
2022/06/01 15:09:04;;;;;;;3.13;2.88;;;;;;;;;;4958525;28;20039;-68
2022/06/01 15:11:29;;;;;;;2.75;2.55;;;;;;;;;;4974704;28;20054;-68
2022/06/01 15:13:54;;;;;;;2.50;2.30;;;;;;;;;;4979996;28;20026;-69
2022/06/01 15:16:19;;;;;;;3.20;2.90;;;;;;;;;;4978721;28;20431;-69
2022/06/01 15:18:46;;;;;;;3.22;2.92;;;;;;;;;;4981921;28;20535;-70
2022/06/01 15:21:11;;;;;;;4.50;3.13;;;;;;;;;;4959559;28;20035;-68
2022/06/01 15:23:37;;;;;;;3.40;2.90;;;;;;;;;;4980620;28;20025;-69
2022/06/01 15:26:03;;;;;;;4.78;3.10;;;;;;;;;;4979203;28;20026;-67
2022/06/01 15:28:28;;;;;;;3.92;3.35;;;;;;;;;;4980556;28;20122;-68